createdAt,value
2022-10-14T00:01:10.789Z,-23557.03
2022-10-14T00:03:13.400Z,-23557.81
2022-10-14T00:05:16.156Z,-23560.03
2022-10-14T00:07:19.094Z,-23558.59
2022-10-14T00:09:23.401Z,-23557.97
2022-10-14T00:11:27.829Z,-23557.03
2022-10-14T00:13:30.473Z,-23557.50
2022-10-14T00:15:33.111Z,-23558.13
2022-10-14T00:17:36.821Z,-23558.75
2022-10-14T00:19:39.408Z,-23556.53
2022-10-14T00:21:44.809Z,-23555.75
2022-10-14T00:23:47.794Z,-23557.50
2022-10-14T00:25:52.103Z,-23556.22
2022-10-14T00:27:54.926Z,-23554.97
2022-10-14T00:29:57.518Z,-23562.25
2022-10-14T00:32:00.153Z,-23560.81
2022-10-14T00:34:03.119Z,-23558.13
2022-10-14T00:36:07.678Z,-23558.13
2022-10-14T00:38:10.274Z,-23556.53
2022-10-14T00:40:14.168Z,-23554.66
2022-10-14T00:42:18.288Z,-23556.06
2022-10-14T00:44:58.274Z,-23555.59
2022-10-14T00:47:00.931Z,-23559.06
2022-10-14T00:49:08.778Z,-23557.81
2022-10-14T00:51:11.780Z,-23557.50
2022-10-14T00:53:15.750Z,-23556.53
2022-10-14T00:55:19.744Z,-23557.50
2022-10-14T00:57:26.099Z,-23556.53
2022-10-14T00:59:28.786Z,-23557.97
2022-10-14T01:01:31.511Z,-23555.59
2022-10-14T01:03:35.042Z,-23555.28
2022-10-14T01:05:46.918Z,-23554.66
2022-10-14T01:08:03.421Z,-23553.22
2022-10-14T01:10:12.826Z,-23556.88
2022-10-14T01:12:30.038Z,-23553.69
2022-10-14T01:14:41.904Z,-23554.81
2022-10-14T01:16:53.426Z,-23553.06
2022-10-14T01:19:17.407Z,-23554.66
2022-10-14T01:21:28.116Z,-23560.97
2022-10-14T01:24:06.731Z,-23554.81
2022-10-14T01:26:41.553Z,-23554.50
2022-10-14T01:28:55.887Z,-23557.81
2022-10-14T01:31:04.465Z,-23555.59
2022-10-14T01:33:12.737Z,-23554.34
2022-10-14T01:35:24.938Z,-23552.75
2022-10-14T01:37:31.166Z,-23553.22
2022-10-14T01:39:39.145Z,-23555.91
2022-10-14T01:41:46.473Z,-23554.50
2022-10-14T01:43:51.498Z,-23552.44
2022-10-14T01:45:56.118Z,-23553.69
2022-10-14T01:48:02.501Z,-23553.22
2022-10-14T01:50:11.192Z,-23558.13
2022-10-14T01:52:20.013Z,-23555.13
2022-10-14T01:54:27.197Z,-23553.84
2022-10-14T01:56:31.945Z,-23557.19
2022-10-14T01:58:37.391Z,-23559.72
2022-10-14T02:00:40.027Z,-23555.91
2022-10-14T02:02:42.848Z,-23557.34
2022-10-14T02:04:46.836Z,-23555.75
2022-10-14T02:06:54.275Z,-23557.81
2022-10-14T02:09:09.281Z,-23557.50
2022-10-14T02:11:15.617Z,-23558.28
2022-10-14T02:13:33.670Z,-23557.50
2022-10-14T02:15:48.930Z,-23557.81
2022-10-14T02:17:57.071Z,-23556.72
2022-10-14T02:20:05.912Z,-23558.13
2022-10-14T02:22:16.199Z,-23559.88
2022-10-14T02:24:23.507Z,-23561.28
2022-10-14T02:26:28.338Z,-23560.81
2022-10-14T02:28:32.725Z,-23558.13
2022-10-14T02:30:41.571Z,-23557.97
2022-10-14T02:32:46.678Z,-23558.44
2022-10-14T02:34:55.089Z,-23558.28
2022-10-14T02:37:00.567Z,-23561.78
2022-10-14T02:39:04.758Z,-23560.34
2022-10-14T02:41:13.106Z,-23558.75
2022-10-14T02:43:15.893Z,-23557.81
2022-10-14T02:45:19.640Z,-23556.38
2022-10-14T02:47:22.806Z,-23558.75
2022-10-14T02:49:25.461Z,-23558.44
2022-10-14T02:51:28.363Z,-23558.75
2022-10-14T02:53:32.469Z,-23555.28
2022-10-14T02:55:35.119Z,-23552.44
2022-10-14T02:57:37.797Z,-23553.53
2022-10-14T02:59:40.625Z,-23555.44
2022-10-14T03:01:43.328Z,-23558.13
2022-10-14T03:03:46.262Z,-23556.22
2022-10-14T03:05:49.100Z,-23554.34
2022-10-14T03:07:51.713Z,-23552.75
2022-10-14T03:09:55.721Z,-23552.75
2022-10-14T03:11:58.307Z,-23551.81
2022-10-14T03:14:00.964Z,-23554.66
2022-10-14T03:16:03.579Z,-23553.84
2022-10-14T03:18:06.300Z,-23552.28
2022-10-14T03:20:09.923Z,-23553.06
2022-10-14T03:22:12.578Z,-23550.53
2022-10-14T03:24:15.203Z,-23550.22
2022-10-14T03:26:19.410Z,-23551.81
2022-10-14T03:28:22.081Z,-23553.06
2022-10-14T03:30:24.650Z,-23557.03
2022-10-14T03:32:27.303Z,-23548.47
2022-10-14T03:34:29.910Z,-23550.06
2022-10-14T03:36:32.632Z,-23554.34
2022-10-14T03:38:35.279Z,-23549.59
2022-10-14T03:40:37.886Z,-23550.22
2022-10-14T03:42:42.392Z,-23548.00
2022-10-14T03:44:46.192Z,-23550.22
2022-10-14T03:46:48.884Z,-23555.91
2022-10-14T03:48:51.508Z,-23552.75
2022-10-14T03:50:54.249Z,-23551.00
2022-10-14T03:52:56.877Z,-23561.59
2022-10-14T03:54:59.557Z,-23554.34
2022-10-14T03:57:02.192Z,-23554.66
2022-10-14T03:59:06.226Z,-23549.59
2022-10-14T04:01:08.869Z,-23547.06
2022-10-14T04:03:11.506Z,-23549.28
2022-10-14T04:05:14.505Z,-23547.38
2022-10-14T04:07:17.108Z,-23543.25
2022-10-14T04:09:19.729Z,-23540.72
2022-10-14T04:11:22.395Z,-23547.53
2022-10-14T04:13:25.756Z,-23554.03
2022-10-14T04:15:29.750Z,-23546.44
2022-10-14T04:17:33.424Z,-23543.88
2022-10-14T04:19:36.039Z,-23546.09
2022-10-14T04:21:38.666Z,-23543.75
2022-10-14T04:23:41.419Z,-23545.47
2022-10-14T04:25:44.123Z,-23548.63
2022-10-14T04:27:46.982Z,-23546.91
2022-10-14T04:29:49.650Z,-23539.31
2022-10-14T04:31:53.697Z,-23542.00
2022-10-14T04:33:56.278Z,-23542.00
2022-10-14T04:35:59.953Z,-23544.69
2022-10-14T04:38:02.628Z,-23544.84
2022-10-14T04:40:06.348Z,-23544.84
2022-10-14T04:42:08.969Z,-23544.22
2022-10-14T04:44:11.774Z,-23544.38
2022-10-14T04:46:14.399Z,-23545.78
2022-10-14T04:48:18.558Z,-23551.00
2022-10-14T04:50:22.051Z,-23552.91
2022-10-14T04:52:24.786Z,-23547.22
2022-10-14T04:54:27.887Z,-23546.25
2022-10-14T04:56:30.523Z,-23542.00
2022-10-14T04:58:33.180Z,-23539.16
2022-10-14T05:00:35.757Z,-23538.84
2022-10-14T05:02:38.603Z,-23542.31
2022-10-14T05:04:42.610Z,-23542.63
2022-10-14T05:06:45.264Z,-23539.47
2022-10-14T05:08:47.908Z,-23537.09
2022-10-14T05:10:50.642Z,-23540.72
2022-10-14T05:12:53.292Z,-23539.16
2022-10-14T05:14:56.025Z,-23539.31
2022-10-14T05:16:58.680Z,-23538.50
2022-10-14T05:19:01.693Z,-23536.94
2022-10-14T05:21:05.861Z,-22095.50
2022-10-14T05:23:08.479Z,-22841.06
2022-10-14T05:25:11.085Z,-19716.22
2022-10-14T05:27:13.675Z,-22128.69
2022-10-14T05:29:16.516Z,-22084.06
2022-10-14T05:31:19.191Z,-23539.63
2022-10-14T05:33:21.842Z,-22669.69
2022-10-14T05:35:46.377Z,-23538.19
2022-10-14T05:37:48.530Z,-22672.25
2022-10-14T05:39:51.198Z,-23539.16
2022-10-14T05:41:53.875Z,-21623.88
2022-10-14T05:43:56.440Z,-23536.59
2022-10-14T05:45:59.093Z,-21526.25
2022-10-14T05:48:01.708Z,-17406.88
2022-10-14T05:50:04.617Z,-15792.22
2022-10-14T05:52:07.254Z,-16116.53
2022-10-14T05:54:12.263Z,-23547.53
2022-10-14T05:56:15.121Z,-23552.13
2022-10-14T05:58:17.795Z,-23553.38
2022-10-14T06:00:25.430Z,-23554.66
2022-10-14T06:02:28.640Z,-23550.84
2022-10-14T06:04:31.335Z,-23547.84
2022-10-14T06:06:33.937Z,-23553.38
2022-10-14T06:08:36.539Z,-23550.53
2022-10-14T06:10:40.526Z,-23547.69
2022-10-14T06:12:43.298Z,-23547.06
2022-10-14T06:14:45.970Z,-23555.59
2022-10-14T06:16:50.964Z,-23558.44
2022-10-14T06:18:54.573Z,-23555.75
2022-10-14T06:20:57.390Z,-23554.34
2022-10-14T06:23:00.106Z,-23558.13
2022-10-14T06:25:04.430Z,-23553.22
2022-10-14T06:27:08.675Z,-23556.88
2022-10-14T06:29:12.226Z,-23557.50
2022-10-14T06:31:14.865Z,-23549.44
2022-10-14T06:33:17.528Z,-23548.63
2022-10-14T06:35:20.137Z,-23553.69
2022-10-14T06:37:22.772Z,-23551.47
2022-10-14T06:39:25.410Z,-23563.34
2022-10-14T06:41:28.168Z,-23561.59
2022-10-14T06:43:32.169Z,-23555.28
2022-10-14T06:45:34.817Z,-23557.19
2022-10-14T06:47:37.507Z,-23553.06
2022-10-14T06:49:40.178Z,-23555.28
2022-10-14T06:51:42.935Z,-23553.38
2022-10-14T06:53:45.551Z,-23553.69
2022-10-14T06:55:48.173Z,-23558.13
2022-10-14T06:57:50.783Z,-23554.50
2022-10-14T06:59:54.810Z,-23557.97
2022-10-14T07:01:58.384Z,-23571.88
2022-10-14T07:04:01.050Z,-23567.16
2022-10-14T07:06:04.701Z,-23579.31
2022-10-14T07:08:09.087Z,-23581.84
2022-10-14T07:10:15.489Z,-23567.31
2022-10-14T07:12:18.336Z,-23561.78
2022-10-14T07:14:21.174Z,-23571.09
2022-10-14T07:16:25.280Z,-23564.94
2022-10-14T07:18:28.004Z,-23567.78
2022-10-14T07:20:30.623Z,-23563.50
2022-10-14T07:22:38.690Z,-23564.94
2022-10-14T07:24:41.926Z,-23567.94
2022-10-14T07:26:44.619Z,-23573.31
2022-10-14T07:28:47.268Z,-23569.19
2022-10-14T07:30:57.945Z,-23570.47
2022-10-14T07:33:01.907Z,-23572.53
2022-10-14T07:35:05.006Z,-23571.72
2022-10-14T07:37:07.614Z,-23574.41
2022-10-14T07:39:10.728Z,-23571.09
2022-10-14T07:41:18.154Z,-23574.41
2022-10-14T07:43:20.755Z,-23581.84
2022-10-14T07:45:23.465Z,-23581.53
2022-10-14T07:47:26.119Z,-23577.09
2022-10-14T07:49:30.232Z,-23577.25
2022-10-14T07:51:34.144Z,-23580.59
2022-10-14T07:53:37.743Z,-23580.59
2022-10-14T07:55:51.898Z,-23581.38
2022-10-14T07:57:54.526Z,-23585.66
2022-10-14T07:59:57.404Z,-23593.84
2022-10-14T08:02:00.289Z,-23588.00
2022-10-14T08:04:03.621Z,-23588.63
2022-10-14T08:06:08.243Z,-23595.91
2022-10-14T08:08:11.106Z,-23586.91
2022-10-14T08:10:13.926Z,-23589.75
2022-10-14T08:12:16.627Z,-23590.84
2022-10-14T08:14:19.255Z,-23589.75
2022-10-14T08:16:24.097Z,-23584.84
2022-10-14T08:18:27.530Z,-23589.91
2022-10-14T08:20:30.154Z,-23587.53
2022-10-14T08:22:34.126Z,-23585.66
2022-10-14T08:24:36.762Z,-23584.53
2022-10-14T08:26:41.160Z,-23586.28
2022-10-14T08:28:43.820Z,-23595.28
2022-10-14T08:30:48.068Z,-23592.75
2022-10-14T08:32:50.730Z,-23596.38
2022-10-14T08:34:55.902Z,-23596.22
2022-10-14T08:36:58.487Z,-23609.19
2022-10-14T08:39:02.621Z,-23614.88
2022-10-14T08:41:17.330Z,-23610.91
2022-10-14T08:43:26.925Z,-23625.13
2022-10-14T08:45:34.579Z,-23613.44
2022-10-14T08:47:41.240Z,-23616.28
2022-10-14T08:49:53.935Z,-23609.81
2022-10-14T08:52:01.340Z,-23616.28
2022-10-14T08:54:12.082Z,-23619.91
2022-10-14T08:56:15.947Z,-23610.59
2022-10-14T09:00:35.340Z,-23618.81
2022-10-14T09:02:45.236Z,-23622.13
2022-10-14T09:04:48.064Z,-23614.22
2022-10-14T09:06:52.097Z,-23615.66
2022-10-14T09:08:59.365Z,-23631.44
2022-10-14T09:11:03.569Z,-23621.81
2022-10-14T09:13:12.230Z,-23634.13
2022-10-14T09:15:22.272Z,-23644.69
2022-10-14T09:17:29.369Z,-23639.00
2022-10-14T09:19:39.580Z,-23642.97
2022-10-14T09:21:52.591Z,-23645.47
2022-10-14T09:24:00.777Z,-23641.53
2022-10-14T09:26:09.911Z,-23650.06
2022-10-14T09:28:12.808Z,-23658.25
2022-10-14T09:30:17.863Z,-23662.22
2022-10-14T09:32:28.747Z,-23654.63
2022-10-14T09:34:35.621Z,-23659.69
2022-10-14T09:36:38.325Z,-23665.81
2022-10-14T09:38:41.149Z,-23655.09
2022-10-14T09:40:45.429Z,-23667.88
2022-10-14T09:42:55.269Z,-23660.47
2022-10-14T09:47:14.119Z,-23657.47
2022-10-14T09:49:19.722Z,-23655.91
2022-10-14T09:51:26.507Z,-23653.38
2022-10-14T09:53:31.997Z,-23664.09
2022-10-14T09:55:34.745Z,-23666.16
2022-10-14T09:57:37.413Z,-23667.88
2022-10-14T09:59:53.743Z,-23653.38
2022-10-14T10:01:59.283Z,-23667.09
2022-10-14T10:04:27.303Z,-23685.84
2022-10-14T10:06:29.899Z,-23689.63
2022-10-14T10:08:33.348Z,-23676.69
2022-10-14T10:10:36.016Z,-23689.47
2022-10-14T10:12:41.615Z,-23699.06
2022-10-14T10:14:57.825Z,-23699.88
2022-10-14T10:17:18.008Z,-23684.13
2022-10-14T10:19:27.826Z,-23685.53
2022-10-14T10:21:31.413Z,-23694.81
2022-10-14T10:23:36.288Z,-23688.22
2022-10-14T10:25:38.984Z,-23684.41
2022-10-14T10:27:43.449Z,-23690.88
2022-10-14T10:29:47.479Z,-23697.34
2022-10-14T10:32:02.253Z,-23700.81
2022-10-14T10:34:19.018Z,-23706.00
2022-10-14T10:36:29.014Z,-23674.03
2022-10-14T10:38:35.702Z,-23680.00
2022-10-14T10:40:41.516Z,-23686.94
2022-10-14T10:42:55.347Z,-23686.47
2022-10-14T10:45:08.100Z,-23680.00
2022-10-14T10:47:27.094Z,-23670.25
2022-10-14T10:49:50.164Z,-23667.88
2022-10-14T10:51:56.471Z,-23674.03
2022-10-14T10:54:08.538Z,-23673.56
2022-10-14T10:56:20.267Z,-23674.97
2022-10-14T10:58:36.082Z,-23674.66
2022-10-14T11:00:49.585Z,-23670.25
2022-10-14T11:03:00.235Z,-23677.81
2022-10-14T11:05:11.288Z,-23681.28
2022-10-14T11:07:42.082Z,-23680.66
2022-10-14T11:10:20.845Z,-23678.13
2022-10-14T11:12:28.382Z,-23671.81
2022-10-14T11:14:48.855Z,-23668.34
2022-10-14T11:17:02.294Z,-23668.19
2022-10-14T11:19:13.864Z,-23667.72
2022-10-14T11:21:26.718Z,-23664.72
2022-10-14T11:23:49.137Z,-23665.34
2022-10-14T11:25:56.456Z,-23662.22
2022-10-14T11:28:05.943Z,-23658.41
2022-10-14T11:30:19.152Z,-23657.63
2022-10-14T11:32:38.601Z,-23656.06
2022-10-14T11:34:44.423Z,-23655.09
2022-10-14T11:37:00.619Z,-23653.69
2022-10-14T11:39:19.122Z,-23652.25
2022-10-14T11:41:33.039Z,-23647.84
2022-10-14T11:43:44.543Z,-23651.47
2022-10-14T11:45:53.299Z,-23652.44
2022-10-14T11:48:05.745Z,-23658.88
2022-10-14T11:50:15.609Z,-23654.94
2022-10-14T11:52:24.616Z,-23659.22
2022-10-14T11:54:32.100Z,-23668.19
2022-10-14T11:56:47.991Z,-23673.22
2022-10-14T11:58:52.740Z,-23679.69
2022-10-14T12:01:15.986Z,-23680.66
2022-10-14T12:03:27.667Z,-23681.13
2022-10-14T12:05:39.539Z,-23672.13
2022-10-14T12:07:47.525Z,-23700.19
2022-10-14T12:09:59.020Z,-23676.06
2022-10-14T12:12:05.803Z,-23675.13
2022-10-14T12:14:14.276Z,-23683.31
2022-10-14T12:16:19.953Z,-23696.41
2022-10-14T12:18:23.952Z,-23692.16
2022-10-14T12:20:35.032Z,-23691.34
2022-10-14T12:22:40.343Z,-23683.31
2022-10-14T12:24:47.495Z,-23682.38
2022-10-14T12:26:53.271Z,-23688.03
2022-10-14T12:28:57.764Z,-23689.94
2022-10-14T12:31:23.038Z,-23684.13
2022-10-14T12:33:27.013Z,-23689.47
2022-10-14T12:36:00.917Z,-23682.53
2022-10-14T12:38:04.973Z,-23684.41
2022-10-14T12:40:26.533Z,-23690.41
2022-10-14T12:42:30.604Z,-23697.97
2022-10-14T12:44:37.424Z,-23701.28
2022-10-14T12:46:44.825Z,-23705.22
2022-10-14T12:48:52.567Z,-23693.09
2022-10-14T12:51:07.426Z,-23696.88
2022-10-14T12:53:22.316Z,-23687.72
2022-10-14T12:55:27.337Z,-23683.16
2022-10-14T12:57:36.199Z,-23687.72
2022-10-14T12:59:41.511Z,-23686.94
2022-10-14T13:01:44.940Z,-23687.41
2022-10-14T13:03:57.560Z,-23690.72
2022-10-14T13:06:38.694Z,-23692.94
2022-10-14T13:08:41.428Z,-23687.88
2022-10-14T13:10:48.399Z,-23686.47
2022-10-14T13:12:51.083Z,-23684.59
2022-10-14T13:14:59.222Z,-23685.06
2022-10-14T13:17:02.675Z,-23683.78
2022-10-14T13:19:27.050Z,-23684.91
2022-10-14T13:21:51.517Z,-23686.78
2022-10-14T13:23:55.561Z,-23686.78
2022-10-14T13:26:10.365Z,-23689.94
2022-10-14T13:28:25.010Z,-23691.06
2022-10-14T13:30:36.443Z,-23688.84
2022-10-14T13:32:45.277Z,-23688.34
2022-10-14T13:34:58.463Z,-23690.41
2022-10-14T13:37:26.299Z,-23688.22
2022-10-14T13:39:29.037Z,-23685.69
2022-10-14T13:41:34.536Z,-23685.06
2022-10-14T13:43:42.207Z,-23686.94
2022-10-14T13:45:49.085Z,-23687.41
2022-10-14T13:47:52.351Z,-23686.16
2022-10-14T13:49:56.866Z,-23685.06
2022-10-14T13:52:04.370Z,-23684.91
2022-10-14T13:54:17.072Z,-23683.94
2022-10-14T13:56:24.135Z,-23684.13
2022-10-14T13:58:26.736Z,-23683.00
2022-10-14T14:00:40.670Z,-23682.84
2022-10-14T14:02:49.081Z,-23681.44
2022-10-14T14:04:58.323Z,-23683.63
2022-10-14T14:07:24.452Z,-23676.38
2022-10-14T14:09:26.688Z,-23674.66
2022-10-14T14:11:31.744Z,-23671.97
2022-10-14T14:13:38.765Z,-23668.97
2022-10-14T14:15:42.202Z,-23666.78
2022-10-14T14:17:44.862Z,-23668.19
2022-10-14T14:19:48.635Z,-23669.94
2022-10-14T14:21:52.742Z,-23669.28
2022-10-14T14:23:57.654Z,-23666.16
2022-10-14T14:26:18.346Z,-23663.63
2022-10-14T14:28:22.478Z,-23663.00
2022-10-14T14:30:29.870Z,-23665.50
2022-10-14T14:32:33.608Z,-23665.50
2022-10-14T14:34:38.451Z,-23662.03
2022-10-14T14:37:05.631Z,-23654.94
2022-10-14T14:39:06.333Z,-23661.25
2022-10-14T14:41:23.988Z,-23663.47
2022-10-14T14:43:31.313Z,-23661.09
2022-10-14T14:45:41.811Z,-23658.56
2022-10-14T14:47:45.656Z,-23663.16
2022-10-14T14:49:57.481Z,-23661.41
2022-10-14T14:52:14.720Z,-23664.56
2022-10-14T14:54:20.968Z,-23666.16
2022-10-14T14:56:27.568Z,-23667.56
2022-10-14T14:58:34.876Z,-23668.03
2022-10-14T15:00:37.520Z,-23666.31
2022-10-14T15:02:40.279Z,-23667.72
2022-10-14T15:04:43.378Z,-23668.34
2022-10-14T15:06:51.925Z,-23668.03
2022-10-14T15:08:57.372Z,-23666.78
2022-10-14T15:11:02.338Z,-23667.25
2022-10-14T15:13:05.069Z,-23666.94
2022-10-14T15:15:26.653Z,-23664.88
2022-10-14T15:17:32.992Z,-23662.69
2022-10-14T15:19:38.763Z,-23662.03
2022-10-14T15:21:41.795Z,-23661.09
2022-10-14T15:23:58.429Z,-23660.16
2022-10-14T15:26:02.504Z,-23660.16
2022-10-14T15:28:05.271Z,-23660.47
2022-10-14T15:30:18.881Z,-23657.00
2022-10-14T15:32:21.846Z,-23657.63
2022-10-14T15:34:24.771Z,-23655.41
2022-10-14T15:36:29.052Z,-23656.69
2022-10-14T15:40:34.748Z,-23653.84
2022-10-14T15:42:38.753Z,-23651.78
2022-10-14T15:44:41.402Z,-23651.16
2022-10-14T15:47:03.580Z,-23649.44
2022-10-14T15:49:16.276Z,-23648.00
2022-10-14T15:51:20.614Z,-23647.69
2022-10-14T15:53:23.235Z,-23645.97
2022-10-14T15:55:27.818Z,-23642.66
2022-10-14T15:57:30.508Z,-23643.44
2022-10-14T15:59:34.485Z,-23640.91
2022-10-14T16:01:39.839Z,-23638.38
2022-10-14T16:03:42.882Z,-23638.88
2022-10-14T16:05:45.646Z,-23638.38
2022-10-14T16:07:48.461Z,-23637.44
2022-10-14T16:09:51.129Z,-23635.53
2022-10-14T16:11:57.935Z,-23633.97
2022-10-14T16:14:00.538Z,-23633.50
2022-10-14T16:16:10.258Z,-23632.56
2022-10-14T16:18:12.891Z,-23632.38
2022-10-14T16:20:15.744Z,-23630.66
2022-10-14T16:22:18.322Z,-23629.38
2022-10-14T16:24:25.323Z,-23631.91
2022-10-14T16:26:29.162Z,-23629.56
2022-10-14T16:28:31.760Z,-23627.97
2022-10-14T16:30:35.605Z,-23626.06
2022-10-14T16:32:39.551Z,-23626.25
2022-10-14T16:34:42.195Z,-23625.13
2022-10-14T16:36:44.969Z,-23624.03
2022-10-14T16:38:47.930Z,-23623.56
2022-10-14T16:40:55.420Z,-23624.66
2022-10-14T16:42:57.997Z,-23623.06
2022-10-14T16:45:00.596Z,-23623.22
2022-10-14T16:47:19.247Z,-23622.91
2022-10-14T16:49:23.531Z,-23622.13
2022-10-14T16:51:26.136Z,-23622.28
2022-10-14T16:53:41.743Z,-23622.28
2022-10-14T16:55:44.353Z,-23622.28
2022-10-14T16:57:47.267Z,-23622.59
2022-10-14T16:59:49.897Z,-23621.50
2022-10-14T17:01:52.985Z,-23620.72
2022-10-14T17:03:56.465Z,-23622.13
2022-10-14T17:06:00.437Z,-23621.81
2022-10-14T17:08:03.022Z,-23620.25
2022-10-14T17:10:06.722Z,-23621.97
2022-10-14T17:12:13.735Z,-23619.44
2022-10-14T17:14:19.075Z,-23620.09
2022-10-14T17:16:21.908Z,-23618.03
2022-10-14T17:18:25.733Z,-23618.81
2022-10-14T17:20:28.591Z,-23618.19
2022-10-14T17:22:32.534Z,-23618.34
2022-10-14T17:24:35.167Z,-23619.44
2022-10-14T17:26:37.839Z,-23619.75
2022-10-14T17:28:41.310Z,-23618.03
2022-10-14T17:30:43.984Z,-23617.88
2022-10-14T17:32:46.571Z,-23618.50
2022-10-14T17:34:53.243Z,-23619.44
2022-10-14T17:36:56.269Z,-23620.88
2022-10-14T17:39:01.137Z,-23620.56
2022-10-14T17:41:04.606Z,-23620.88
2022-10-14T17:43:07.199Z,-23620.56
2022-10-14T17:45:11.137Z,-23619.44
2022-10-14T17:47:13.797Z,-23617.88
2022-10-14T17:49:16.499Z,-23619.75
2022-10-14T17:51:23.404Z,-23619.59
2022-10-14T17:53:26.155Z,-23618.50
2022-10-14T17:55:30.461Z,-23617.69
2022-10-14T17:57:33.063Z,-23618.97
2022-10-14T17:59:35.803Z,-23618.81
2022-10-14T18:04:03.113Z,-23618.19
2022-10-14T18:06:14.353Z,-23618.81
2022-10-14T18:08:16.978Z,-23616.59
2022-10-14T18:10:19.765Z,-23616.28
2022-10-14T18:12:24.099Z,-23614.88
2022-10-14T18:14:26.824Z,-23615.03
2022-10-14T18:16:33.449Z,-23613.59
2022-10-14T18:18:36.533Z,-23613.13
2022-10-14T18:20:39.511Z,-23613.13
2022-10-14T18:22:42.213Z,-23611.22
2022-10-14T18:24:45.021Z,-23614.72
2022-10-14T18:26:50.404Z,-23615.19
2022-10-14T18:28:55.941Z,-23610.28
2022-10-14T18:31:03.669Z,-23610.59
2022-10-14T18:33:06.381Z,-23609.97
2022-10-14T18:35:09.529Z,-23606.97
2022-10-14T18:37:12.137Z,-23603.97
2022-10-14T18:39:15.438Z,-23604.75
2022-10-14T18:41:18.307Z,-23600.97
2022-10-14T18:43:20.967Z,-23600.81
2022-10-14T18:45:24.939Z,-23598.59
2022-10-14T18:47:28.464Z,-23595.44
2022-10-14T18:49:31.083Z,-23592.75
2022-10-14T18:51:36.578Z,-23591.50
2022-10-14T18:53:40.690Z,-23589.13
2022-10-14T18:55:44.560Z,-23590.38
2022-10-14T18:57:47.161Z,-23588.31
2022-10-14T18:59:50.963Z,-23587.38
2022-10-14T19:01:55.318Z,-23584.69
2022-10-14T19:03:58.377Z,-23583.75
2022-10-14T19:06:01.490Z,-23582.63
2022-10-14T19:08:04.879Z,-23580.91
2022-10-14T19:10:08.933Z,-23580.28
2022-10-14T19:12:25.642Z,-23581.38
2022-10-14T19:14:31.660Z,-23580.44
2022-10-14T19:16:36.028Z,-23579.47
2022-10-14T19:18:40.053Z,-23581.84
2022-10-14T19:20:42.900Z,-23578.38
2022-10-14T19:22:45.594Z,-23578.06
2022-10-14T19:24:48.198Z,-23578.06
2022-10-14T19:26:50.903Z,-23578.38
2022-10-14T19:28:54.363Z,-23577.41
2022-10-14T19:30:57.078Z,-23575.22
2022-10-14T19:32:59.669Z,-23574.72
2022-10-14T19:35:03.660Z,-23574.09
2022-10-14T19:37:06.288Z,-23572.03
2022-10-14T19:39:12.138Z,-23572.53
2022-10-14T19:41:14.761Z,-23570.47
2022-10-14T19:43:17.335Z,-23573.78
2022-10-14T19:45:19.965Z,-23571.09
2022-10-14T19:47:22.829Z,-23573.00
2022-10-14T19:49:25.685Z,-23571.25
2022-10-14T19:51:30.511Z,-23572.34
2022-10-14T19:53:33.243Z,-23573.63
2022-10-14T19:55:35.936Z,-23574.25
2022-10-14T19:57:38.550Z,-23572.34
2022-10-14T19:59:41.167Z,-23573.31
2022-10-14T20:01:43.773Z,-23571.41
2022-10-14T20:03:46.409Z,-23571.72
2022-10-14T20:05:49.014Z,-23570.78
2022-10-14T20:07:54.444Z,-23570.47
2022-10-14T20:09:59.265Z,-23572.03
2022-10-14T20:12:05.442Z,-23571.09
2022-10-14T20:14:08.141Z,-23571.41
2022-10-14T20:16:12.432Z,-23570.16
2022-10-14T20:18:17.900Z,-23570.63
2022-10-14T20:20:20.498Z,-23570.78
2022-10-14T20:22:23.398Z,-23570.78
2022-10-14T20:24:27.523Z,-23568.88
2022-10-14T20:26:30.690Z,-23568.88
2022-10-14T20:28:35.935Z,-23570.47
2022-10-14T20:30:39.662Z,-23568.25
2022-10-14T20:32:42.264Z,-23567.47
2022-10-14T20:34:44.824Z,-23567.31
2022-10-14T20:36:47.415Z,-23567.47
2022-10-14T20:38:50.626Z,-23566.34
2022-10-14T20:40:54.681Z,-23568.41
2022-10-14T20:42:57.788Z,-23567.31
2022-10-14T20:45:00.593Z,-23568.09
2022-10-14T20:47:03.175Z,-21685.16
2022-10-14T20:49:05.778Z,-22710.63
2022-10-14T20:51:09.586Z,-21415.25
2022-10-14T20:53:12.220Z,-21070.69
2022-10-14T20:55:15.159Z,-17426.84
2022-10-14T20:57:19.108Z,-15160.09
2022-10-14T20:59:21.734Z,-14836.16
2022-10-14T21:01:25.329Z,-14187.97
2022-10-14T21:03:27.931Z,-11595.16
2022-10-14T21:05:30.577Z,-9325.34
2022-10-14T21:07:33.146Z,-8027.16
2022-10-14T21:09:35.764Z,-6079.56
2022-10-14T21:11:39.312Z,-5430.19
2022-10-14T21:13:45.016Z,-2181.38
2022-10-14T21:15:47.623Z,94.78
2022-10-14T21:17:50.988Z,745.22
2022-10-14T21:19:53.571Z,1070.31
2022-10-14T21:21:56.537Z,2372.34
2022-10-14T21:23:59.999Z,3022.91
2022-10-14T21:26:02.605Z,3348.53
2022-10-14T21:28:05.376Z,3999.50
2022-10-14T21:30:11.258Z,5628.03
2022-10-14T21:32:13.878Z,5953.59
2022-10-14T21:34:16.790Z,8886.44
2022-10-14T21:36:19.394Z,9863.63
2022-10-14T21:38:21.942Z,11820.53
2022-10-14T21:40:24.587Z,13779.34
2022-10-14T21:42:27.190Z,14430.69
2022-10-14T21:44:29.764Z,17042.63
2022-10-14T21:46:34.295Z,19002.97
2022-10-14T21:48:36.894Z,20636.91
2022-10-14T21:50:39.527Z,22272.81
2022-10-14T21:52:42.123Z,23580.69
2022-10-14T21:54:44.764Z,25545.28
2022-10-14T21:56:47.435Z,26852.66
2022-10-14T21:58:50.032Z,28492.91
2022-10-14T22:00:52.787Z,29804.69
2022-10-14T22:02:56.757Z,30459.34
2022-10-14T22:04:59.413Z,31773.31
2022-10-14T22:07:02.068Z,32755.38
2022-10-14T22:09:07.379Z,34399.06
2022-10-14T22:11:17.352Z,35381.38
2022-10-14T22:13:19.979Z,36697.09
2022-10-14T22:15:22.577Z,39330.03
2022-10-14T22:17:25.604Z,39325.41
2022-10-14T22:19:29.903Z,40314.13
2022-10-14T22:21:35.017Z,41304.34
2022-10-14T22:23:40.093Z,41306.19
2022-10-14T22:25:42.843Z,40319.56
2022-10-14T22:27:46.003Z,40322.47
2022-10-14T22:29:48.572Z,40653.03
2022-10-14T22:31:51.169Z,39666.84
2022-10-14T22:33:53.904Z,39012.34
2022-10-14T22:36:06.543Z,37697.25
2022-10-14T22:38:09.158Z,38029.25
2022-10-14T22:40:12.528Z,37375.50
2022-10-14T22:42:15.198Z,36062.09
2022-10-14T22:44:17.997Z,34093.69
2022-10-14T22:46:22.364Z,33109.47
2022-10-14T22:48:25.009Z,32127.53
2022-10-14T22:50:27.646Z,28844.16
2022-10-14T22:52:31.612Z,27860.13
2022-10-14T22:54:34.191Z,27534.94
2022-10-14T22:56:36.897Z,25896.81
2022-10-14T22:58:39.535Z,25243.97
2022-10-14T23:00:42.357Z,23933.22
2022-10-14T23:02:46.479Z,21640.91
2022-10-14T23:04:51.181Z,20987.97
2022-10-14T23:06:53.862Z,20660.28
2022-10-14T23:08:59.829Z,20334.25
2022-10-14T23:11:03.378Z,19024.03
2022-10-14T23:13:07.231Z,19353.81
2022-10-14T23:15:10.718Z,18044.28
2022-10-14T23:17:13.292Z,19352.09
2022-10-14T23:19:15.891Z,20661.09
2022-10-14T23:21:21.473Z,20988.97
2022-10-14T23:23:24.128Z,21317.31
2022-10-14T23:25:28.120Z,21973.09
2022-10-14T23:27:32.934Z,21318.97
2022-10-14T23:29:38.220Z,20010.56
2022-10-14T23:31:41.806Z,19356.28
2022-10-14T23:33:45.034Z,18048.41
2022-10-14T23:35:47.780Z,17721.31
2022-10-14T23:37:50.335Z,16087.59
2022-10-14T23:39:52.934Z,14451.34
2022-10-14T23:41:56.855Z,15106.06
2022-10-14T23:43:59.507Z,14780.44
2022-10-14T23:46:02.397Z,14453.28
2022-10-14T23:48:05.422Z,15433.25
2022-10-14T23:50:09.025Z,15106.69
2022-10-14T23:52:11.633Z,16415.06
2022-10-14T23:54:14.198Z,15433.25
2022-10-14T23:56:16.852Z,16088.41
2022-10-14T23:58:20.955Z,16088.09
